sensor_id;sensor_type;location;lat;lon;timestamp;pressure;altitude;pressure_sealevel;temperature;humidity
49529;BME280;35423;37.320;-121.762;2023-03-13T00:02:24;100137.03;;;23.54;31.39
49529;BME280;35423;37.320;-121.762;2023-03-13T00:04:59;100124.83;;;23.44;31.53
49529;BME280;35423;37.320;-121.762;2023-03-13T00:07:27;100130.78;;;23.37;31.65
49529;BME280;35423;37.320;-121.762;2023-03-13T00:09:54;100131.18;;;23.30;31.60
49529;BME280;35423;37.320;-121.762;2023-03-13T00:12:25;100135.87;;;23.29;31.68
49529;BME280;35423;37.320;-121.762;2023-03-13T00:14:51;100153.24;;;23.23;31.92
49529;BME280;35423;37.320;-121.762;2023-03-13T00:17:20;100159.77;;;23.04;32.13
49529;BME280;35423;37.320;-121.762;2023-03-13T00:19:47;100155.04;;;22.95;32.37
49529;BME280;35423;37.320;-121.762;2023-03-13T00:22:20;100148.56;;;23.03;32.64
49529;BME280;35423;37.320;-121.762;2023-03-13T00:24:46;100152.28;;;23.23;32.40
49529;BME280;35423;37.320;-121.762;2023-03-13T00:27:12;100153.31;;;23.08;32.31
49529;BME280;35423;37.320;-121.762;2023-03-13T00:29:42;100148.96;;;23.43;32.10
49529;BME280;35423;37.320;-121.762;2023-03-13T00:32:08;100149.32;;;23.24;32.29
49529;BME280;35423;37.320;-121.762;2023-03-13T00:34:41;100154.98;;;23.32;31.95
49529;BME280;35423;37.320;-121.762;2023-03-13T00:37:07;100149.14;;;23.26;31.62
49529;BME280;35423;37.320;-121.762;2023-03-13T00:39:33;100143.79;;;23.46;31.55
49529;BME280;35423;37.320;-121.762;2023-03-13T00:42:19;100148.72;;;23.40;31.76
49529;BME280;35423;37.320;-121.762;2023-03-13T00:44:48;100144.77;;;23.32;32.16
49529;BME280;35423;37.320;-121.762;2023-03-13T00:47:11;100146.27;;;23.24;32.25
49529;BME280;35423;37.320;-121.762;2023-03-13T00:49:39;100149.99;;;23.28;32.28
49529;BME280;35423;37.320;-121.762;2023-03-13T00:52:08;100150.37;;;23.32;31.85
49529;BME280;35423;37.320;-121.762;2023-03-13T00:54:34;100145.95;;;23.12;31.72
49529;BME280;35423;37.320;-121.762;2023-03-13T00:57:04;100140.52;;;23.03;31.94
49529;BME280;35423;37.320;-121.762;2023-03-13T00:59:30;100141.32;;;22.94;32.15
49529;BME280;35423;37.320;-121.762;2023-03-13T01:01:58;100141.32;;;22.90;32.25
49529;BME280;35423;37.320;-121.762;2023-03-13T01:04:29;100144.93;;;23.03;32.46
49529;BME280;35423;37.320;-121.762;2023-03-13T01:06:55;100142.70;;;22.76;32.82
49529;BME280;35423;37.320;-121.762;2023-03-13T01:09:23;100143.90;;;22.65;32.80
49529;BME280;35423;37.320;-121.762;2023-03-13T01:11:53;100144.88;;;22.66;32.88
49529;BME280;35423;37.320;-121.762;2023-03-13T01:14:22;100140.12;;;22.69;32.95
49529;BME280;35423;37.320;-121.762;2023-03-13T01:16:48;100141.04;;;22.73;33.01
49529;BME280;35423;37.320;-121.762;2023-03-13T01:19:20;100142.39;;;22.53;32.42
49529;BME280;35423;37.320;-121.762;2023-03-13T01:21:46;100145.12;;;23.09;31.99
49529;BME280;35423;37.320;-121.762;2023-03-13T01:24:12;100148.99;;;22.61;31.83
49529;BME280;35423;37.320;-121.762;2023-03-13T01:26:39;100151.05;;;22.52;31.79
49529;BME280;35423;37.320;-121.762;2023-03-13T01:29:12;100147.78;;;22.81;31.77
49529;BME280;35423;37.320;-121.762;2023-03-13T01:31:38;100146.24;;;22.51;32.19
49529;BME280;35423;37.320;-121.762;2023-03-13T01:34:04;100146.69;;;22.50;32.27
49529;BME280;35423;37.320;-121.762;2023-03-13T01:36:31;100147.56;;;22.25;32.35
49529;BME280;35423;37.320;-121.762;2023-03-13T01:38:57;100153.80;;;22.27;32.47
49529;BME280;35423;37.320;-121.762;2023-03-13T01:41:25;100155.07;;;22.62;32.56
49529;BME280;35423;37.320;-121.762;2023-03-13T01:43:51;100153.85;;;22.12;32.70
49529;BME280;35423;37.320;-121.762;2023-03-13T01:46:22;100155.94;;;22.56;32.93
49529;BME280;35423;37.320;-121.762;2023-03-13T01:48:50;100155.36;;;22.58;33.00
49529;BME280;35423;37.320;-121.762;2023-03-13T01:51:21;100160.83;;;22.17;33.20
49529;BME280;35423;37.320;-121.762;2023-03-13T01:53:44;100158.54;;;22.17;33.29
49529;BME280;35423;37.320;-121.762;2023-03-13T01:56:18;100156.27;;;22.67;33.37
49529;BME280;35423;37.320;-121.762;2023-03-13T01:58:38;100156.05;;;22.48;33.23
49529;BME280;35423;37.320;-121.762;2023-03-13T02:01:05;100153.73;;;22.26;32.93
49529;BME280;35423;37.320;-121.762;2023-03-13T02:03:31;100149.62;;;22.41;32.77
49529;BME280;35423;37.320;-121.762;2023-03-13T02:06:00;100149.12;;;22.56;32.78
49529;BME280;35423;37.320;-121.762;2023-03-13T02:08:28;100148.79;;;22.55;32.58
49529;BME280;35423;37.320;-121.762;2023-03-13T02:10:55;100143.74;;;21.95;32.46
49529;BME280;35423;37.320;-121.762;2023-03-13T02:13:27;100143.54;;;22.38;32.33
49529;BME280;35423;37.320;-121.762;2023-03-13T02:15:55;100154.36;;;22.06;32.47
49529;BME280;35423;37.320;-121.762;2023-03-13T02:18:23;100162.57;;;22.03;32.59
49529;BME280;35423;37.320;-121.762;2023-03-13T02:20:51;100162.95;;;21.98;32.70
49529;BME280;35423;37.320;-121.762;2023-03-13T02:23:23;100159.60;;;22.12;32.76
49529;BME280;35423;37.320;-121.762;2023-03-13T02:25:51;100165.58;;;22.12;32.85
49529;BME280;35423;37.320;-121.762;2023-03-13T02:28:19;100167.94;;;21.87;32.87
49529;BME280;35423;37.320;-121.762;2023-03-13T02:30:54;100171.72;;;22.07;33.13
49529;BME280;35423;37.320;-121.762;2023-03-13T02:33:29;100173.07;;;21.97;33.16
49529;BME280;35423;37.320;-121.762;2023-03-13T02:35:54;100172.04;;;21.73;33.33
49529;BME280;35423;37.320;-121.762;2023-03-13T02:38:23;100174.19;;;21.76;33.11
49529;BME280;35423;37.320;-121.762;2023-03-13T02:40:46;100167.14;;;21.51;33.13
49529;BME280;35423;37.320;-121.762;2023-03-13T02:43:16;100161.11;;;21.96;33.03
49529;BME280;35423;37.320;-121.762;2023-03-13T02:48:08;100165.29;;;21.73;33.10
49529;BME280;35423;37.320;-121.762;2023-03-13T02:50:34;100168.21;;;21.91;32.91
49529;BME280;35423;37.320;-121.762;2023-03-13T02:53:02;100169.15;;;21.92;33.06
49529;BME280;35423;37.320;-121.762;2023-03-13T02:55:40;100170.97;;;21.71;33.15
49529;BME280;35423;37.320;-121.762;2023-03-13T02:58:05;100170.63;;;21.87;33.17
49529;BME280;35423;37.320;-121.762;2023-03-13T03:00:30;100172.69;;;21.63;33.34
49529;BME280;35423;37.320;-121.762;2023-03-13T03:02:59;100180.02;;;21.87;33.43
49529;BME280;35423;37.320;-121.762;2023-03-13T03:05:27;100183.50;;;21.67;33.60
49529;BME280;35423;37.320;-121.762;2023-03-13T03:07:56;100184.34;;;21.69;33.60
49529;BME280;35423;37.320;-121.762;2023-03-13T03:10:29;100186.72;;;21.93;33.39
49529;BME280;35423;37.320;-121.762;2023-03-13T03:12:55;100187.01;;;21.92;33.25
49529;BME280;35423;37.320;-121.762;2023-03-13T03:15:20;100198.39;;;21.72;32.88
49529;BME280;35423;37.320;-121.762;2023-03-13T03:17:47;100200.86;;;21.96;33.02
49529;BME280;35423;37.320;-121.762;2023-03-13T03:20:18;100207.77;;;21.77;33.12
49529;BME280;35423;37.320;-121.762;2023-03-13T03:22:43;100212.77;;;22.04;33.43
49529;BME280;35423;37.320;-121.762;2023-03-13T03:25:14;100213.96;;;22.06;33.53
49529;BME280;35423;37.320;-121.762;2023-03-13T03:27:36;100218.15;;;21.88;33.59
49529;BME280;35423;37.320;-121.762;2023-03-13T03:30:01;100222.97;;;22.15;33.42
49529;BME280;35423;37.320;-121.762;2023-03-13T03:32:37;100220.53;;;22.35;33.57
49529;BME280;35423;37.320;-121.762;2023-03-13T03:35:02;100227.89;;;21.82;33.67
49529;BME280;35423;37.320;-121.762;2023-03-13T03:37:31;100228.56;;;22.01;33.80
49529;BME280;35423;37.320;-121.762;2023-03-13T03:40:02;100227.97;;;21.94;33.87
49529;BME280;35423;37.320;-121.762;2023-03-13T03:42:27;100227.60;;;21.85;33.64
49529;BME280;35423;37.320;-121.762;2023-03-13T03:44:57;100223.12;;;22.07;33.34
49529;BME280;35423;37.320;-121.762;2023-03-13T03:47:35;100229.12;;;21.76;33.51
49529;BME280;35423;37.320;-121.762;2023-03-13T03:50:03;100230.18;;;21.78;33.63
49529;BME280;35423;37.320;-121.762;2023-03-13T03:52:27;100226.37;;;21.61;33.67
49529;BME280;35423;37.320;-121.762;2023-03-13T03:54:53;100227.58;;;21.82;33.39
49529;BME280;35423;37.320;-121.762;2023-03-13T03:57:34;100231.78;;;21.61;33.30
49529;BME280;35423;37.320;-121.762;2023-03-13T03:59:59;100233.41;;;21.82;32.98
49529;BME280;35423;37.320;-121.762;2023-03-13T04:02:26;100235.60;;;22.26;32.97
49529;BME280;35423;37.320;-121.762;2023-03-13T04:04:53;100239.67;;;21.69;32.96
49529;BME280;35423;37.320;-121.762;2023-03-13T04:07:23;100238.30;;;21.60;33.13
49529;BME280;35423;37.320;-121.762;2023-03-13T04:09:50;100235.23;;;21.82;33.14
49529;BME280;35423;37.320;-121.762;2023-03-13T04:12:15;100236.46;;;21.47;33.19
49529;BME280;35423;37.320;-121.762;2023-03-13T04:14:49;100237.58;;;21.70;33.20
49529;BME280;35423;37.320;-121.762;2023-03-13T04:17:28;100247.39;;;21.65;33.09
49529;BME280;35423;37.320;-121.762;2023-03-13T04:19:55;100251.75;;;21.32;33.14
49529;BME280;35423;37.320;-121.762;2023-03-13T04:22:21;100253.02;;;21.57;33.11
49529;BME280;35423;37.320;-121.762;2023-03-13T04:24:48;100255.93;;;21.25;33.07
49529;BME280;35423;37.320;-121.762;2023-03-13T04:27:19;100255.63;;;21.59;33.09
49529;BME280;35423;37.320;-121.762;2023-03-13T04:29:47;100262.49;;;21.37;33.11
49529;BME280;35423;37.320;-121.762;2023-03-13T04:32:12;100265.56;;;21.71;33.20
49529;BME280;35423;37.320;-121.762;2023-03-13T04:34:37;100266.98;;;21.93;33.27
49529;BME280;35423;37.320;-121.762;2023-03-13T04:37:05;100272.88;;;21.40;33.54
49529;BME280;35423;37.320;-121.762;2023-03-13T04:39:36;100271.41;;;21.65;33.66
49529;BME280;35423;37.320;-121.762;2023-03-13T04:42:08;100277.37;;;21.62;33.18
49529;BME280;35423;37.320;-121.762;2023-03-13T04:44:35;100278.81;;;21.75;33.19
49529;BME280;35423;37.320;-121.762;2023-03-13T04:47:01;100278.79;;;21.55;33.15
49529;BME280;35423;37.320;-121.762;2023-03-13T04:49:28;100282.82;;;21.51;33.13
49529;BME280;35423;37.320;-121.762;2023-03-13T04:51:54;100289.58;;;21.48;33.15
49529;BME280;35423;37.320;-121.762;2023-03-13T04:54:32;100284.10;;;21.48;33.29
49529;BME280;35423;37.320;-121.762;2023-03-13T04:57:10;100279.94;;;21.49;33.20
49529;BME280;35423;37.320;-121.762;2023-03-13T04:59:41;100278.90;;;21.24;33.24
49529;BME280;35423;37.320;-121.762;2023-03-13T05:02:17;100285.35;;;21.77;33.23
49529;BME280;35423;37.320;-121.762;2023-03-13T05:04:46;100285.35;;;21.60;33.32
49529;BME280;35423;37.320;-121.762;2023-03-13T05:07:12;100282.55;;;21.63;33.38
49529;BME280;35423;37.320;-121.762;2023-03-13T05:09:39;100275.71;;;21.65;33.31
49529;BME280;35423;37.320;-121.762;2023-03-13T05:12:04;100274.81;;;21.37;33.04
49529;BME280;35423;37.320;-121.762;2023-03-13T05:14:34;100270.10;;;21.32;33.05
49529;BME280;35423;37.320;-121.762;2023-03-13T05:17:01;100265.16;;;21.32;33.26
49529;BME280;35423;37.320;-121.762;2023-03-13T05:19:28;100269.98;;;21.54;32.90
49529;BME280;35423;37.320;-121.762;2023-03-13T05:21:54;100270.05;;;21.33;32.90
49529;BME280;35423;37.320;-121.762;2023-03-13T05:24:24;100270.96;;;21.50;33.26
49529;BME280;35423;37.320;-121.762;2023-03-13T05:26:50;100272.11;;;21.16;33.47
49529;BME280;35423;37.320;-121.762;2023-03-13T05:29:17;100276.69;;;21.36;33.74
49529;BME280;35423;37.320;-121.762;2023-03-13T05:31:47;100279.05;;;21.08;33.87
49529;BME280;35423;37.320;-121.762;2023-03-13T05:34:22;100278.85;;;21.33;34.02
49529;BME280;35423;37.320;-121.762;2023-03-13T05:36:50;100278.46;;;21.05;34.24
49529;BME280;35423;37.320;-121.762;2023-03-13T05:39:22;100279.56;;;21.31;34.30
49529;BME280;35423;37.320;-121.762;2023-03-13T05:41:50;100286.41;;;21.34;34.23
49529;BME280;35423;37.320;-121.762;2023-03-13T05:44:15;100282.08;;;21.26;34.26
49529;BME280;35423;37.320;-121.762;2023-03-13T05:46:40;100285.30;;;21.22;34.20
49529;BME280;35423;37.320;-121.762;2023-03-13T05:49:08;100289.32;;;21.19;34.09
49529;BME280;35423;37.320;-121.762;2023-03-13T05:51:34;100294.07;;;21.42;34.14
49529;BME280;35423;37.320;-121.762;2023-03-13T05:54:03;100289.86;;;21.14;34.05
49529;BME280;35423;37.320;-121.762;2023-03-13T05:56:29;100291.44;;;20.79;34.08
49529;BME280;35423;37.320;-121.762;2023-03-13T05:59:03;100293.98;;;21.13;34.27
49529;BME280;35423;37.320;-121.762;2023-03-13T06:01:30;100296.49;;;21.05;34.31
49529;BME280;35423;37.320;-121.762;2023-03-13T06:03:57;100296.92;;;20.72;34.30
49529;BME280;35423;37.320;-121.762;2023-03-13T06:06:27;100297.57;;;20.96;34.39
49529;BME280;35423;37.320;-121.762;2023-03-13T06:08:53;100300.07;;;20.81;34.46
49529;BME280;35423;37.320;-121.762;2023-03-13T06:11:20;100297.36;;;21.06;34.31
49529;BME280;35423;37.320;-121.762;2023-03-13T06:13:45;100291.66;;;21.11;34.29
49529;BME280;35423;37.320;-121.762;2023-03-13T06:16:19;100292.11;;;21.19;34.38
49529;BME280;35423;37.320;-121.762;2023-03-13T06:18:49;100290.65;;;21.21;34.25
49529;BME280;35423;37.320;-121.762;2023-03-13T06:21:16;100286.96;;;21.11;34.18
49529;BME280;35423;37.320;-121.762;2023-03-13T06:23:42;100287.44;;;20.87;34.16
49529;BME280;35423;37.320;-121.762;2023-03-13T06:26:09;100289.79;;;20.86;34.09
49529;BME280;35423;37.320;-121.762;2023-03-13T06:28:35;100284.46;;;21.10;33.64
49529;BME280;35423;37.320;-121.762;2023-03-13T06:31:05;100277.32;;;21.03;33.48
49529;BME280;35423;37.320;-121.762;2023-03-13T06:33:31;100266.50;;;20.93;33.41
49529;BME280;35423;37.320;-121.762;2023-03-13T06:36:02;100262.90;;;20.45;33.60
49529;BME280;35423;37.320;-121.762;2023-03-13T06:38:33;100270.99;;;20.95;33.72
49529;BME280;35423;37.320;-121.762;2023-03-13T06:40:58;100271.67;;;20.94;33.80
49529;BME280;35423;37.320;-121.762;2023-03-13T06:43:34;100263.52;;;20.86;33.99
49529;BME280;35423;37.320;-121.762;2023-03-13T06:46:17;100256.72;;;20.86;34.20
49529;BME280;35423;37.320;-121.762;2023-03-13T06:48:48;100259.38;;;20.54;34.35
49529;BME280;35423;37.320;-121.762;2023-03-13T06:51:15;100271.51;;;20.75;34.44
49529;BME280;35423;37.320;-121.762;2023-03-13T06:53:40;100282.77;;;20.81;34.40
49529;BME280;35423;37.320;-121.762;2023-03-13T06:56:06;100290.10;;;20.84;34.32
49529;BME280;35423;37.320;-121.762;2023-03-13T06:58:36;100294.32;;;20.83;34.26
49529;BME280;35423;37.320;-121.762;2023-03-13T07:01:07;100300.45;;;20.79;34.38
49529;BME280;35423;37.320;-121.762;2023-03-13T07:03:28;100305.49;;;20.78;34.41
49529;BME280;35423;37.320;-121.762;2023-03-13T07:05:59;100308.45;;;20.76;34.52
49529;BME280;35423;37.320;-121.762;2023-03-13T07:08:26;100307.93;;;20.75;34.59
49529;BME280;35423;37.320;-121.762;2023-03-13T07:10:53;100310.33;;;20.74;34.64
49529;BME280;35423;37.320;-121.762;2023-03-13T07:13:21;100309.55;;;20.78;34.66
49529;BME280;35423;37.320;-121.762;2023-03-13T07:15:48;100309.24;;;20.80;34.69
49529;BME280;35423;37.320;-121.762;2023-03-13T07:18:15;100307.34;;;20.76;34.69
49529;BME280;35423;37.320;-121.762;2023-03-13T07:20:44;100310.55;;;20.52;34.85
49529;BME280;35423;37.320;-121.762;2023-03-13T07:23:10;100311.91;;;20.77;34.96
49529;BME280;35423;37.320;-121.762;2023-03-13T07:25:37;100312.90;;;20.57;35.08
49529;BME280;35423;37.320;-121.762;2023-03-13T07:28:15;100314.20;;;20.79;35.23
49529;BME280;35423;37.320;-121.762;2023-03-13T07:30:41;100314.44;;;20.81;35.17
49529;BME280;35423;37.320;-121.762;2023-03-13T07:33:09;100317.59;;;20.79;35.05
49529;BME280;35423;37.320;-121.762;2023-03-13T07:35:36;100320.23;;;20.76;35.11
49529;BME280;35423;37.320;-121.762;2023-03-13T07:38:03;100325.30;;;20.80;35.10
49529;BME280;35423;37.320;-121.762;2023-03-13T07:40:31;100325.80;;;20.84;34.67
49529;BME280;35423;37.320;-121.762;2023-03-13T07:42:57;100334.17;;;20.75;34.72
49529;BME280;35423;37.320;-121.762;2023-03-13T07:45:24;100343.46;;;20.77;34.76
49529;BME280;35423;37.320;-121.762;2023-03-13T07:47:56;100348.04;;;20.51;34.73
49529;BME280;35423;37.320;-121.762;2023-03-13T07:50:21;100344.48;;;20.77;34.74
49529;BME280;35423;37.320;-121.762;2023-03-13T07:52:48;100338.16;;;20.74;34.69
49529;BME280;35423;37.320;-121.762;2023-03-13T07:55:16;100332.63;;;20.74;34.71
49529;BME280;35423;37.320;-121.762;2023-03-13T07:57:44;100328.98;;;20.51;34.78
49529;BME280;35423;37.320;-121.762;2023-03-13T08:00:13;100326.23;;;20.69;34.70
49529;BME280;35423;37.320;-121.762;2023-03-13T08:02:37;100324.68;;;20.70;34.67
49529;BME280;35423;37.320;-121.762;2023-03-13T08:05:06;100318.04;;;20.66;34.61
49529;BME280;35423;37.320;-121.762;2023-03-13T08:07:31;100321.42;;;20.70;34.56
49529;BME280;35423;37.320;-121.762;2023-03-13T08:09:56;100321.65;;;20.60;34.70
49529;BME280;35423;37.320;-121.762;2023-03-13T08:12:23;100323.19;;;20.60;34.78
49529;BME280;35423;37.320;-121.762;2023-03-13T08:14:53;100325.04;;;20.57;34.83
49529;BME280;35423;37.320;-121.762;2023-03-13T08:17:19;100319.94;;;20.56;34.75
49529;BME280;35423;37.320;-121.762;2023-03-13T08:19:46;100317.49;;;20.55;34.74
49529;BME280;35423;37.320;-121.762;2023-03-13T08:22:12;100321.73;;;20.56;34.76
49529;BME280;35423;37.320;-121.762;2023-03-13T08:24:38;100326.65;;;20.60;34.74
49529;BME280;35423;37.320;-121.762;2023-03-13T08:27:04;100332.21;;;20.66;34.74
49529;BME280;35423;37.320;-121.762;2023-03-13T08:29:42;100328.04;;;20.70;34.79
49529;BME280;35423;37.320;-121.762;2023-03-13T08:32:09;100325.50;;;20.71;34.87
49529;BME280;35423;37.320;-121.762;2023-03-13T08:34:38;100328.10;;;20.78;34.90
49529;BME280;35423;37.320;-121.762;2023-03-13T08:37:04;100326.60;;;20.55;35.04
49529;BME280;35423;37.320;-121.762;2023-03-13T08:39:30;100332.20;;;20.76;35.04
49529;BME280;35423;37.320;-121.762;2023-03-13T08:41:56;100331.09;;;20.81;35.07
49529;BME280;35423;37.320;-121.762;2023-03-13T08:44:21;100330.36;;;20.83;35.07
49529;BME280;35423;37.320;-121.762;2023-03-13T08:46:49;100320.24;;;20.77;35.13
49529;BME280;35423;37.320;-121.762;2023-03-13T08:49:17;100320.37;;;20.76;35.14
49529;BME280;35423;37.320;-121.762;2023-03-13T08:51:42;100327.04;;;20.71;35.17
49529;BME280;35423;37.320;-121.762;2023-03-13T08:54:10;100323.72;;;20.64;35.23
49529;BME280;35423;37.320;-121.762;2023-03-13T08:56:40;100321.72;;;20.59;35.35
49529;BME280;35423;37.320;-121.762;2023-03-13T08:59:02;100316.40;;;20.49;35.45
49529;BME280;35423;37.320;-121.762;2023-03-13T09:01:29;100313.97;;;20.19;35.55
49529;BME280;35423;37.320;-121.762;2023-03-13T09:03:53;100313.30;;;20.34;35.62
49529;BME280;35423;37.320;-121.762;2023-03-13T09:06:18;100309.77;;;20.26;35.63
49529;BME280;35423;37.320;-121.762;2023-03-13T09:08:51;100309.57;;;20.22;35.68
49529;BME280;35423;37.320;-121.762;2023-03-13T09:11:23;100304.22;;;20.63;35.72
49529;BME280;35423;37.320;-121.762;2023-03-13T09:13:48;100306.46;;;20.05;35.74
49529;BME280;35423;37.320;-121.762;2023-03-13T09:16:15;100302.64;;;20.03;35.83
49529;BME280;35423;37.320;-121.762;2023-03-13T09:18:46;100307.88;;;20.02;35.89
49529;BME280;35423;37.320;-121.762;2023-03-13T09:21:15;100306.51;;;20.00;36.14
49529;BME280;35423;37.320;-121.762;2023-03-13T09:23:39;100309.07;;;20.24;36.11
49529;BME280;35423;37.320;-121.762;2023-03-13T09:26:09;100310.68;;;19.99;36.04
49529;BME280;35423;37.320;-121.762;2023-03-13T09:28:35;100316.39;;;20.42;35.98
49529;BME280;35423;37.320;-121.762;2023-03-13T09:31:06;100320.42;;;20.35;36.10
49529;BME280;35423;37.320;-121.762;2023-03-13T09:33:25;100322.67;;;19.87;36.04
49529;BME280;35423;37.320;-121.762;2023-03-13T09:35:54;100321.36;;;19.74;36.16
49529;BME280;35423;37.320;-121.762;2023-03-13T09:38:21;100322.86;;;19.95;36.28
49529;BME280;35423;37.320;-121.762;2023-03-13T09:40:52;100321.33;;;19.92;36.30
49529;BME280;35423;37.320;-121.762;2023-03-13T09:43:23;100322.03;;;20.08;36.26
49529;BME280;35423;37.320;-121.762;2023-03-13T09:45:43;100321.44;;;19.53;36.21
49529;BME280;35423;37.320;-121.762;2023-03-13T09:48:12;100318.30;;;19.74;36.26
49529;BME280;35423;37.320;-121.762;2023-03-13T09:50:35;100321.57;;;19.72;36.27
49529;BME280;35423;37.320;-121.762;2023-03-13T09:53:04;100321.30;;;19.44;36.38
49529;BME280;35423;37.320;-121.762;2023-03-13T09:55:32;100318.80;;;19.98;36.32
49529;BME280;35423;37.320;-121.762;2023-03-13T09:58:05;100316.53;;;19.70;36.32
49529;BME280;35423;37.320;-121.762;2023-03-13T10:00:30;100317.18;;;19.41;36.27
49529;BME280;35423;37.320;-121.762;2023-03-13T10:02:56;100315.89;;;19.87;36.19
49529;BME280;35423;37.320;-121.762;2023-03-13T10:05:19;100320.87;;;19.84;36.17
49529;BME280;35423;37.320;-121.762;2023-03-13T10:07:48;100326.18;;;19.36;36.17
49529;BME280;35423;37.320;-121.762;2023-03-13T10:10:14;100322.90;;;19.61;36.09
49529;BME280;35423;37.320;-121.762;2023-03-13T10:12:40;100326.00;;;19.76;36.04
49529;BME280;35423;37.320;-121.762;2023-03-13T10:17:32;100325.31;;;19.78;36.11
49529;BME280;35423;37.320;-121.762;2023-03-13T10:19:58;100323.56;;;19.35;36.16
49529;BME280;35423;37.320;-121.762;2023-03-13T10:22:23;100324.35;;;19.67;36.08
49529;BME280;35423;37.320;-121.762;2023-03-13T10:24:53;100326.29;;;19.70;35.95
49529;BME280;35423;37.320;-121.762;2023-03-13T10:27:15;100322.61;;;19.70;35.96
49529;BME280;35423;37.320;-121.762;2023-03-13T10:29:42;100320.30;;;19.93;35.99
49529;BME280;35423;37.320;-121.762;2023-03-13T10:32:12;100312.15;;;19.97;35.93
49529;BME280;35423;37.320;-121.762;2023-03-13T10:37:02;100299.31;;;19.98;35.87
49529;BME280;35423;37.320;-121.762;2023-03-13T10:39:29;100304.80;;;19.78;35.90
49529;BME280;35423;37.320;-121.762;2023-03-13T10:44:32;100301.96;;;19.63;35.82
49529;BME280;35423;37.320;-121.762;2023-03-13T10:46:52;100300.77;;;20.00;35.76
49529;BME280;35423;37.320;-121.762;2023-03-13T10:49:23;100295.00;;;20.19;35.85
49529;BME280;35423;37.320;-121.762;2023-03-13T10:51:58;100293.94;;;20.00;35.90
49529;BME280;35423;37.320;-121.762;2023-03-13T10:54:27;100289.71;;;20.01;35.96
49529;BME280;35423;37.320;-121.762;2023-03-13T10:56:52;100285.43;;;20.27;35.94
49529;BME280;35423;37.320;-121.762;2023-03-13T10:59:32;100286.61;;;20.26;35.91
49529;BME280;35423;37.320;-121.762;2023-03-13T11:01:42;100286.62;;;20.02;35.93
49529;BME280;35423;37.320;-121.762;2023-03-13T11:06:42;100286.62;;;20.04;35.99
49529;BME280;35423;37.320;-121.762;2023-03-13T11:09:13;100285.66;;;20.28;35.97
49529;BME280;35423;37.320;-121.762;2023-03-13T11:11:43;100281.06;;;20.09;35.90
49529;BME280;35423;37.320;-121.762;2023-03-13T11:14:07;100278.92;;;19.81;35.90
49529;BME280;35423;37.320;-121.762;2023-03-13T11:16:28;100282.83;;;20.09;35.86
49529;BME280;35423;37.320;-121.762;2023-03-13T11:21:22;100280.05;;;19.88;35.92
49529;BME280;35423;37.320;-121.762;2023-03-13T11:23:46;100277.92;;;19.89;35.91
49529;BME280;35423;37.320;-121.762;2023-03-13T11:26:15;100276.75;;;20.20;35.75
49529;BME280;35423;37.320;-121.762;2023-03-13T11:28:48;100278.38;;;20.20;35.65
49529;BME280;35423;37.320;-121.762;2023-03-13T11:31:11;100274.93;;;19.92;35.68
49529;BME280;35423;37.320;-121.762;2023-03-13T11:33:45;100275.64;;;20.43;35.69
49529;BME280;35423;37.320;-121.762;2023-03-13T11:36:11;100272.89;;;19.97;35.68
49529;BME280;35423;37.320;-121.762;2023-03-13T11:38:35;100267.61;;;19.96;35.52
49529;BME280;35423;37.320;-121.762;2023-03-13T11:41:06;100271.08;;;19.98;35.44
49529;BME280;35423;37.320;-121.762;2023-03-13T11:43:35;100274.47;;;20.05;35.46
49529;BME280;35423;37.320;-121.762;2023-03-13T11:48:26;100282.44;;;20.12;35.37
49529;BME280;35423;37.320;-121.762;2023-03-13T11:50:48;100283.87;;;20.17;35.40
49529;BME280;35423;37.320;-121.762;2023-03-13T11:53:26;100279.79;;;20.18;35.45
49529;BME280;35423;37.320;-121.762;2023-03-13T11:55:43;100276.62;;;20.18;35.51
49529;BME280;35423;37.320;-121.762;2023-03-13T12:00:32;100278.83;;;20.11;35.58
49529;BME280;35423;37.320;-121.762;2023-03-13T12:03:01;100280.30;;;20.15;35.64
49529;BME280;35423;37.320;-121.762;2023-03-13T12:05:23;100278.17;;;20.16;35.68
49529;BME280;35423;37.320;-121.762;2023-03-13T12:07:53;100275.22;;;20.38;35.72
49529;BME280;35423;37.320;-121.762;2023-03-13T12:10:22;100275.35;;;20.10;35.69
49529;BME280;35423;37.320;-121.762;2023-03-13T12:12:48;100279.00;;;20.08;35.71
49529;BME280;35423;37.320;-121.762;2023-03-13T12:15:21;100279.50;;;20.07;35.73
49529;BME280;35423;37.320;-121.762;2023-03-13T12:17:48;100278.00;;;20.07;35.75
49529;BME280;35423;37.320;-121.762;2023-03-13T12:20:17;100278.83;;;20.04;35.80
49529;BME280;35423;37.320;-121.762;2023-03-13T12:22:47;100284.45;;;20.34;35.80
49529;BME280;35423;37.320;-121.762;2023-03-13T12:25:12;100281.99;;;20.51;35.94
49529;BME280;35423;37.320;-121.762;2023-03-13T12:27:39;100281.38;;;20.31;35.95
49529;BME280;35423;37.320;-121.762;2023-03-13T12:30:05;100276.59;;;20.29;35.97
49529;BME280;35423;37.320;-121.762;2023-03-13T12:32:34;100277.36;;;20.29;35.97
49529;BME280;35423;37.320;-121.762;2023-03-13T12:34:59;100277.23;;;20.29;35.99
49529;BME280;35423;37.320;-121.762;2023-03-13T12:37:27;100279.80;;;20.03;36.00
49529;BME280;35423;37.320;-121.762;2023-03-13T12:39:52;100287.12;;;20.51;35.95
49529;BME280;35423;37.320;-121.762;2023-03-13T12:42:26;100292.51;;;20.08;35.67
49529;BME280;35423;37.320;-121.762;2023-03-13T12:44:39;100297.07;;;20.03;35.64